Relevés horaires Kleine Brogel (Belgique)


Relevés horaires à Kleine Brogel - Jeudi 11 Avr. 2024
Heure UTC1 Température [°C] Vent [km/h] Hum. [%] Pres.4 [hPa] Visi. [Km] Nébu. [octa] Préc.5 [mm] Cond.
2m. Res. Ros. Dir.2 Vit. Moy. Raf.3
23:00 13.6 13.6 11.2 SO 5.6 -- 9.3 85 1032.7(0.2/3h) 20 -- -- --
22:00 13.8 13.8 11.0 SO 5.6 -- 9.3 83 1032.7(0.2/3h) 20 -- -- --
21:00 13.8 13.8 10.9 SO 3.7 -- 9.3 83 1032.7(0.2/3h) 20 -- -- --
20:00 13.8 13.8 11.1 NNO 1.9 -- 5.6 84 1032.5(0.4/3h) 19 -- -- --
19:00 14.0 14.0 11.2 SO 5.6 -- 9.3 83 1032.5(0.4/3h) 20 -- -- --
18:00 14.5 14.5 11.1 SO 5.6 -- 13.0 80 1032.4(0.1/3h) 20 -- 0.2/12h
--
17:00 14.8 14.7 11.2 SO 7.4 -- 11.1 79 1032(-0.1/3h) 20 -- -- --
16:00 15.0 15.0 10.9 SSO 5.6 -- 13.0 76 1032.2(-0.3/3h) 20 -- -- --
15:00 15.2 15.2 10.5 SO 5.6 -- 13.0 74 1032.2(0.0/3h) 20 -- -- --
14:00 15.0 15.0 10.6 SSO 5.6 -- 11.1 75 1032.2(0.0/3h) 20 8/8 -- --
13:00 14.7 14.3 10.6 SO 9.3 -- 13.0 76 1032.4(0.5/3h) 20 8/8 -- --
12:00 14.5 14.1 10.5 OSO 9.3 -- 18.5 77 1032.2(0.8/3h) 20 8/8 0.2/6h
Etat du ciel inchangé
11:00 14.5 14.1 10.2 SO 9.3 -- 16.7 75 1032.2(1.7/3h) 19 8/8 -- --
10:00 12.7 12.3 9.3 SO 7.4 -- 16.7 80 1031.9(1.4/3h) 19 8/8 -- Il est tombé de la pluie (non sous forme d'averses) à la station au cours de l'heure précédente, mais il n'y en a pas au moment de l'observation
09:00 12.8 11.8 7.7 SO 11.1 -- 16.7 71 1031.4(1.8/3h) 20 8/8 -- --
08:00 12.5 12.1 7.2 SO 7.4 -- 16.7 70 1030.5(1.1/3h) 20 8/8 -- --
07:00 11.8 11.2 6.0 SSO 7.4 -- 13.0 68 1030.5(0.8/3h) 20 7/8 -- --
06:00 11.3 10.7 5.2 SSO 7.4 -- 14.8 66 1029.5(-0.2/3h) 20 7/8 -- --
05:00 10.6 9.8 4.1 SSO 7.4 -- 11.1 64 1029.4(-0.3/3h) 20 7/8 -- --
04:00 10.8 10.5 3.8 SSO 5.6 -- 13.0 62 1029.7(-0.2/3h) 20 -- -- --
03:00 11.0 10.3 3.5 SSO 7.4 -- 14.8 60 1029.7(-0.4/3h) 20 -- -- --
02:00 10.8 10.1 3.5 SSO 7.4 -- 14.8 61 1029.7(-0.3/3h) 20 -- -- --
01:00 10.6 9.8 3.1 SSO 7.4 -- 13.0 60 1030(-0.3/3h) 20 -- -- --
00:00 10.5 10.2 3.0 SSO 5.6 -- 11.1 60 1030.2(0.0/3h) 20 -- -- --

1 Coordinated Universal Time. Actuellement il est 00:00 locale et 22:00 UTC.

2 Le vent souffle depuis la direction indiquée vers la direction oposée.

3 Les rafales max. sont disponible 40 min après l'heure du relevé.

4 Pour les stations d'altitude (plus de 600m) le géopotentiel du niveau le plus proche de la pression obligatoire est indiqué.

5 Les stations disposant d'un diffuseur peuvent indiquer "trace". Cela signifie que des précipitations ont touchés le sol mais que la quantité est inférieure à 0.1 mm.

Récapitulatif de la journée
Température [°C] Vent [km/h] Ensoleillement4 [h] Precipitations totale5 [mm] Pression [Hpa]
Min1 Max.2 Moy.3 Max. Min Max.
9.1 15.4 0 18.5 0 h 0 min 0 1029.4 1032.7

1 Température minimale relevée entre 18:00 UTC la veille et 18:00 UTC le jour donné.

2 Température maximale relevée entre 06:00 UTC le jour donné et 06:00 UTC le lendemain.

3 Vent moyen de la journée basé sur les relevés horaires.

4 Ensoleillement en heures relevé entre 06:00 UTC la veille et 06:00 UTC le jour donné.

5 Précipitations totales tombées entre 06:00 UTC la jour donné et 06:00 UTC le lendemain.

Graphiques horaires